Stations météo

Publicité
Fichtelberg, Allemagne (10578): Température de l'air & dewpoint: 10.01.2018 09:00:00 - 16.01.2018 09:00:00 (CET)Fichtelberg, Allemagne (10578): Température de l'air 5cm & Température de l'air -5cm: 10.01.2018 09:00:00 - 16.01.2018 09:00:00 (CET)Fichtelberg, Allemagne (10578): Température de l'air -20cm & Température de l'air -100cm: 10.01.2018 09:00:00 - 16.01.2018 09:00:00 (CET)Fichtelberg, Allemagne (10578): Vitesse du vent & gusts: 10.01.2018 09:00:00 - 16.01.2018 09:00:00 (CET)Fichtelberg, Allemagne (10578): Direction du vent: 10.01.2018 09:00:00 - 16.01.2018 09:00:00 (CET)Fichtelberg, Allemagne (10578): visibility: 10.01.2018 09:00:00 - 16.01.2018 09:00:00 (CET)Fichtelberg, Allemagne (10578): Ensoleillement: 10.01.2018 09:00:00 - 16.01.2018 09:00:00 (CET)
Date & Time tt [°C] td [°C] tt 5cm [°C] tt -5cm [°C] tt -20cm [°C] tt -100cm [°C] ff [km/h] ff [knt] fx [km/h] fx [knt] dd vv [km] sd [min]
16.01.2018 09:00:00 - - - - - - - - - - - - -
16.01.2018 08:00:00 -2,3 -2,5 -2,4 0,1 0,7 2,9 51 28 80 43 SW 0,1 0
16.01.2018 07:00:00 -2,6 -2,9 -2,7 0,1 0,7 2,9 59 32 84 45 SW 0,1 0
16.01.2018 06:00:00 -3,0 -3,4 -4,1 0,1 0,7 2,9 62 33 95 52 SSW 0,1 0
16.01.2018 05:00:00 -3,7 -4,1 -4,6 0,1 0,7 2,9 61 33 77 41 SSW 0,1 0
16.01.2018 04:00:00 -4,7 -5,3 -4,8 0,1 0,7 2,9 53 28 68 37 S 0,1 0
16.01.2018 03:00:00 -4,7 -5,3 -4,8 0,1 0,7 2,9 54 29 87 47 S 0,1 0
16.01.2018 02:00:00 -4,6 -5,2 -4,8 0,1 0,7 2,9 64 35 83 45 S 0,1 0
16.01.2018 01:00:00 -5,2 -5,8 -5,3 0,1 0,7 2,9 59 32 78 42 S 0,1 0
16.01.2018 00:00:00 -5,5 -6,2 -5,6 0,1 0,7 2,9 54 29 74 40 S 0,1 0
15.01.2018 23:00:00 -5,7 -6,4 -5,8 0,1 0,7 2,9 50 27 71 39 SSE 0,1 0
15.01.2018 22:00:00 -6,6 -7,5 -6,7 0,1 0,7 2,9 39 21 62 34 SE 0,1 0
15.01.2018 21:00:00 -6,0 -6,8 -6,2 0,1 0,7 2,9 43 23 63 34 SSE 4,0 0
15.01.2018 20:00:00 -6,1 -7,0 -6,4 0,1 0,7 2,9 42 23 65 35 SSE 8 0
15.01.2018 19:00:00 -6,2 -7,1 -6,4 0,1 0,7 2,9 45 24 70 38 SSE 9 0
15.01.2018 18:00:00 -6,1 -6,8 -6,3 0,1 0,7 2,9 36 19 54 29 SE 6 0
15.01.2018 17:00:00 -6,4 -7,3 -7,2 0,2 0,7 2,9 34 18 50 27 SSE 18 0
15.01.2018 16:00:00 -6,0 -7,0 -6,8 0,2 0,7 2,9 39 21 54 29 S 30 38
15.01.2018 15:00:00 -5,9 -6,8 -6,5 0,2 0,7 2,9 40 21 51 28 S 35 51
15.01.2018 14:00:00 -6,0 -6,9 -5,5 0,2 0,7 2,9 37 20 51 28 S 30 45
15.01.2018 13:00:00 -6,1 -7,0 -5,0 0,2 0,7 2,9 44 24 54 29 S 30 56
15.01.2018 12:00:00 -6,8 -7,6 -6,1 0,2 0,7 2,9 41 22 51 28 S 0,1 8
15.01.2018 11:00:00 -7,0 -7,9 -6,8 0,2 0,7 2,9 35 19 50 27 S 0,1 0
15.01.2018 10:00:00 -6,9 -7,7 -6,7 0,2 0,7 2,9 34 18 52 28 S 0,1 0
15.01.2018 09:00:00 -7,1 -7,9 -7,2 0,2 0,7 2,9 25 14 44 24 SSE 0,2 0
15.01.2018 08:00:00 -7,1 -7,9 -7,3 0,2 0,7 2,9 32 18 42 23 SSE 0,2 0
15.01.2018 07:00:00 -7,1 -7,9 -7,7 0,2 0,7 2,9 28 15 49 27 SSE 0,2 0
15.01.2018 06:00:00 -7,0 -7,8 -7,8 0,2 0,7 2,9 37 20 52 28 S 0,2 0
15.01.2018 05:00:00 -7,0 -7,9 -7,8 0,2 0,7 2,9 36 19 53 28 S 0,2 0
15.01.2018 04:00:00 -7,0 -7,8 -7,5 0,2 0,7 2,9 30 16 41 22 SE 0,2 0
15.01.2018 03:00:00 -6,9 -7,5 -7,1 0,2 0,7 2,9 16 9 38 20 SSE 0,2 0
15.01.2018 02:00:00 -7,0 -7,7 -7,1 0,2 0,7 2,9 22 12 48 26 SE 0,2 0
15.01.2018 01:00:00 -7,1 -7,9 -7,3 0,2 0,7 2,9 35 19 57 31 SE 0,2 0
15.01.2018 00:00:00 -7,0 -7,8 -7,2 0,2 0,7 2,9 43 23 61 33 ESE 0,2 0
14.01.2018 23:00:00 -7,0 -7,9 -7,2 0,2 0,7 2,9 46 25 64 34 ESE 0,1 0
14.01.2018 22:00:00 -7,0 -7,8 -7,1 0,2 0,7 2,9 46 25 63 34 ESE 0,1 0
14.01.2018 21:00:00 -6,9 -7,7 -7,0 0,2 0,7 2,9 44 24 61 33 ESE 0,1 0
14.01.2018 20:00:00 -7,0 -7,8 -7,1 0,2 0,7 2,9 51 28 66 36 ESE 0,1 0
14.01.2018 19:00:00 -7,1 -7,9 -7,3 0,2 0,7 2,9 51 27 63 34 E 0,1 0
14.01.2018 18:00:00 -7,3 -8,1 -7,4 0,2 0,7 2,9 42 23 54 29 E 0,1 0
14.01.2018 17:00:00 -7,3 -8,1 -7,5 0,2 0,7 2,9 44 24 54 29 E 0,1 0
14.01.2018 16:00:00 -7,3 -8,0 -7,4 0,2 0,7 2,9 33 18 42 23 E 0,1 0
14.01.2018 15:00:00 -7,5 -8,2 -7,5 0,2 0,7 2,9 36 20 44 24 ESE - 0
14.01.2018 14:00:00 -7,5 -8,3 -7,4 0,2 0,7 2,9 35 19 44 24 ESE - 0
14.01.2018 13:00:00 -7,5 -8,2 -7,4 0,2 0,7 2,9 37 20 49 26 ESE 0,1 0
14.01.2018 12:00:00 -7,6 -8,4 -7,5 0,2 0,7 2,9 36 20 56 31 ESE 0,1 0
14.01.2018 11:00:00 -7,6 -8,5 -7,7 0,2 0,7 2,9 46 25 67 36 ESE 0,1 0
14.01.2018 10:00:00 -7,7 -8,5 -7,7 0,2 0,7 2,9 49 26 62 33 ESE 0,1 0
14.01.2018 09:00:00 -7,6 -8,4 -7,7 0,2 0,7 2,9 49 26 58 31 E 0,1 0
14.01.2018 08:00:00 -7,5 -8,3 -7,7 0,2 0,7 2,9 42 23 55 30 E 0,1 0
14.01.2018 07:00:00 -7,3 -8,0 -7,5 0,2 0,7 2,9 39 21 53 28 E 0,1 0
14.01.2018 06:00:00 -7,2 -8,0 -7,4 0,2 0,7 2,9 37 20 57 31 ESE 0,1 0
14.01.2018 05:00:00 -7,2 -8,0 -7,3 0,2 0,7 2,9 48 26 83 45 ESE 0,1 0
14.01.2018 04:00:00 -6,8 -7,6 -7,0 0,2 0,7 2,9 52 28 76 41 ESE 0,1 0
14.01.2018 03:00:00 -7,4 -8,3 -7,5 0,2 0,7 2,9 52 28 70 38 ESE 0,1 0
14.01.2018 02:00:00 -7,1 -7,9 -7,2 0,2 0,7 2,9 49 26 67 36 ESE 0,1 0
14.01.2018 01:00:00 -7,6 -8,5 -7,7 0,2 0,7 2,9 50 27 64 35 ESE 0,1 0
14.01.2018 00:00:00 -8,0 -8,8 -8,1 0,2 0,7 2,9 54 29 70 38 ESE 0,1 0
13.01.2018 23:00:00 -8,2 -9,1 -8,3 0,2 0,7 2,9 55 30 74 40 ESE 0,1 0
13.01.2018 22:00:00 -8,8 -9,8 -8,9 0,2 0,7 2,9 55 30 66 35 ESE 6 0
13.01.2018 21:00:00 -9,0 -10,0 -9,1 0,2 0,7 2,9 51 28 68 37 ESE 8 0
13.01.2018 20:00:00 -9,1 -10,1 -9,1 0,2 0,7 2,9 53 29 73 40 ESE 0,1 0
13.01.2018 19:00:00 -8,8 -9,8 -8,9 0,2 0,7 2,9 54 29 65 35 E 0,1 0
13.01.2018 18:00:00 -8,2 -9,1 -8,3 0,2 0,7 2,9 51 28 63 34 ESE 0,1 0
13.01.2018 17:00:00 -7,5 -8,3 -7,6 0,2 0,7 2,9 48 26 58 32 E 0,1 0
13.01.2018 16:00:00 -7,1 -7,9 -7,1 0,2 0,7 2,9 49 26 57 31 E - 0
13.01.2018 15:00:00 -6,5 -7,1 -6,4 0,2 0,7 3,0 37 20 42 23 E - 0
13.01.2018 14:00:00 -6,2 -6,8 -6,0 0,2 0,7 3,0 30 16 40 22 E - 0
13.01.2018 13:00:00 -5,9 -6,5 -5,7 0,2 0,7 3,0 31 17 39 21 E - 0
13.01.2018 12:00:00 -5,4 -5,9 -5,2 0,2 0,7 3,0 31 17 44 24 E - 0
13.01.2018 11:00:00 -4,9 -5,4 -4,8 0,2 0,7 3,0 35 19 43 23 ESE - 0
13.01.2018 10:00:00 -4,6 -5,0 -4,6 0,2 0,7 3,0 28 15 46 25 E - 0
13.01.2018 09:00:00 -4,4 -4,7 -4,3 0,2 0,7 3,0 34 18 39 21 E - 0
13.01.2018 08:00:00 -4,1 -4,4 -4,1 0,2 0,7 3,0 29 16 36 19 E - 0
13.01.2018 07:00:00 -3,9 -4,2 -3,9 0,2 0,7 3,0 27 15 34 18 E 0,1 0
13.01.2018 06:00:00 -3,6 -3,8 -3,5 0,2 0,7 3,0 27 15 36 19 E 0,1 0
13.01.2018 05:00:00 -3,5 -3,7 -3,5 0,2 0,7 3,0 27 14 35 19 E 0,1 0
13.01.2018 04:00:00 -3,4 -3,6 -3,3 0,2 0,7 3,0 24 13 33 18 E 0,1 0
13.01.2018 03:00:00 -3,1 -3,2 -3,1 0,2 0,7 3,0 22 12 29 16 E 0,1 0
13.01.2018 02:00:00 -3,0 -3,1 -3,0 0,2 0,7 3,0 24 13 31 17 ESE 0,1 0
13.01.2018 01:00:00 -2,9 -3,1 -2,9 0,2 0,7 3,0 24 13 34 18 ESE - 0
13.01.2018 00:00:00 -2,6 -2,8 -2,7 0,2 0,7 3,0 24 13 33 18 ESE 0,1 0
12.01.2018 23:00:00 -2,4 -2,5 -2,5 0,2 0,7 3,0 18 10 25 13 ESE 0,1 0
12.01.2018 22:00:00 -2,3 -2,4 -2,3 0,2 0,7 3,0 22 12 29 16 ESE 0,1 0
12.01.2018 21:00:00 -2,1 -2,1 -2,1 0,2 0,7 3,0 21 11 31 17 ESE 0,1 0
12.01.2018 20:00:00 -1,9 -2,0 -2,0 0,2 0,7 3,0 20 11 28 15 ESE 0,1 0
12.01.2018 19:00:00 -1,9 -2,0 -2,0 0,2 0,7 3,0 14 8 21 11 ESE 0,1 0
12.01.2018 18:00:00 -1,6 -1,7 -1,8 0,2 0,7 3,0 10 6 13 7 E - 0
12.01.2018 17:00:00 -1,5 -1,7 -1,6 0,2 0,7 3,0 8 4 13 7 ENE 0,1 0
12.01.2018 16:00:00 -1,1 -1,3 -1,2 0,2 0,7 3,0 7 4 14 7 ENE - 0
12.01.2018 15:00:00 -0,8 -1,3 -0,8 0,2 0,7 3,0 6 3 13 7 N 8 0
12.01.2018 14:00:00 -0,3 -0,5 -0,4 0,2 0,7 3,0 9 5 12 6 N 6 0
12.01.2018 13:00:00 0,3 -1,3 0,5 0,2 0,7 3,0 5 3 10 5 NW 40 0
12.01.2018 12:00:00 -0,1 -1,2 -0,2 0,2 0,7 3,0 5 3 9 5 ENE 40 0
12.01.2018 11:00:00 -0,4 -1,0 -0,6 0,2 0,7 3,0 7 4 11 6 E 30 0
12.01.2018 10:00:00 -1,1 -1,2 -1,1 0,2 0,7 3,0 7 4 11 6 ENE 10 0
12.01.2018 09:00:00 -1,1 -1,5 -1,3 0,2 0,7 3,0 9 5 15 8 NNE 15 0
12.01.2018 08:00:00 -1,3 -1,6 -1,9 0,2 0,7 3,0 13 7 18 10 NNE 25 0
12.01.2018 07:00:00 -1,2 -1,3 -1,7 0,2 0,7 3,0 11 6 17 9 NNE 0,1 0
12.01.2018 06:00:00 -0,8 -0,8 -0,9 0,2 0,7 3,0 8 5 16 9 N 0,1 0
12.01.2018 05:00:00 -0,8 -0,8 -0,9 0,2 0,7 3,0 13 7 16 9 N 0,1 0
12.01.2018 04:00:00 -0,6 -0,6 -0,8 0,2 0,7 3,0 14 8 16 8 N 0,1 0
12.01.2018 03:00:00 -0,4 -0,8 -0,7 0,2 0,7 3,0 11 6 13 7 N 10 0
12.01.2018 02:00:00 -0,7 -0,7 -0,9 0,2 0,7 3,0 11 6 14 8 NNW 0,1 0
12.01.2018 01:00:00 -0,4 -0,4 -0,6 0,2 0,7 3,0 10 6 13 7 N 0,2 0
12.01.2018 00:00:00 -0,4 -0,4 -0,6 0,2 0,7 3,0 10 6 13 7 N 0,2 0
11.01.2018 23:00:00 -0,4 -0,7 -0,8 0,2 0,7 3,0 11 6 13 7 N 0,2 0
11.01.2018 22:00:00 -0,6 -0,7 -0,9 0,2 0,7 3,0 12 6 16 9 NNW 0,1 0
11.01.2018 21:00:00 -0,8 -0,8 -1,1 0,2 0,7 3,0 11 6 21 11 NW 0,1 0
11.01.2018 20:00:00 -0,6 -0,8 -1,1 0,2 0,7 3,0 18 10 21 12 NNW 26 0
11.01.2018 19:00:00 -0,6 -1,3 -1,1 0,2 0,7 3,0 21 12 24 13 NNW 50 0
11.01.2018 18:00:00 -0,7 -1,3 -1,4 0,2 0,7 3,0 18 10 19 11 NNW 12 0
11.01.2018 17:00:00 -0,7 -0,7 -1,4 0,2 0,7 3,0 16 9 19 11 NW 0,1 0
11.01.2018 16:00:00 0,6 -0,6 -1,0 0,2 0,7 3,0 13 7 14 8 WNW 50 26
11.01.2018 15:00:00 1,4 -0,3 0,2 0,2 0,7 3,0 13 7 17 9 WNW 50 51
11.01.2018 14:00:00 2,3 -0,1 1,9 0,2 0,7 3,0 10 5 16 8 NW 60 60
11.01.2018 13:00:00 3,4 -1,8 2,9 0,2 0,7 3,0 8 4 15 8 NW 70 59
11.01.2018 12:00:00 3,4 -2,0 2,5 0,2 0,7 3,0 3 2 8 5 W 70 60
11.01.2018 11:00:00 2,4 -2,8 1,3 0,2 0,7 3,0 3 2 8 5 ENE 70 60
11.01.2018 10:00:00 1,1 -2,6 -1,1 0,2 0,7 3,0 5 3 12 6 NE 60 60
11.01.2018 09:00:00 0,1 -2,6 -1,9 0,2 0,7 3,0 9 5 14 7 NNE 50 20
11.01.2018 08:00:00 -0,5 -1,4 -1,9 0,2 0,7 3,0 14 8 16 9 NNW 50 0
11.01.2018 07:00:00 -0,8 -1,3 -2,4 0,2 0,7 3,0 14 7 16 9 NNW 30 0
11.01.2018 06:00:00 -0,7 -2,3 -3,0 0,2 0,7 3,0 16 8 16 9 NW 80 0
11.01.2018 05:00:00 -0,6 -1,0 -1,9 0,2 0,7 3,0 14 8 15 8 N 15 0
11.01.2018 04:00:00 -0,6 -1,0 -2,2 0,2 0,7 3,0 12 6 17 9 N 40 0
11.01.2018 03:00:00 0,0 -2,9 -2,1 0,2 0,7 3,0 16 9 18 10 NNW 80 0
11.01.2018 02:00:00 -0,3 -1,3 -1,7 0,2 0,7 3,0 13 7 16 9 NNW 80 0
11.01.2018 01:00:00 -0,3 -1,6 -2,2 0,2 0,7 3,0 16 9 19 10 NW 80 0
11.01.2018 00:00:00 0,0 -1,7 -2,3 0,2 0,7 3,0 18 10 23 12 NW 80 0
10.01.2018 23:00:00 -0,4 -1,5 -2,5 0,2 0,7 3,0 22 12 23 12 W 80 0
10.01.2018 22:00:00 -0,4 -1,7 -2,5 0,2 0,7 3,0 20 11 21 11 W 80 0
10.01.2018 21:00:00 -0,3 -1,7 -2,5 0,2 0,7 3,0 17 9 21 12 WNW 80 0
10.01.2018 20:00:00 -0,4 -1,3 -2,5 0,2 0,7 3,0 18 10 20 11 W 80 0
10.01.2018 19:00:00 0,4 -1,3 -2,4 0,2 0,7 3,0 9 5 13 7 WNW 80 0
10.01.2018 18:00:00 0,7 -0,7 -1,0 0,2 0,7 3,0 11 6 16 8 N 80 0
10.01.2018 17:00:00 1,1 -1,3 -0,4 0,2 0,7 3,0 14 8 16 8 NNW 80 18
10.01.2018 16:00:00 2,5 -0,3 0,7 0,2 0,7 3,0 9 5 12 7 NNW 80 60
10.01.2018 15:00:00 3,1 0,0 1,5 0,2 0,7 3,0 8 5 24 13 N 80 60
10.01.2018 14:00:00 4,5 0,3 3,1 0,2 0,7 3,0 14 8 24 13 W 80 60
10.01.2018 13:00:00 4,2 0,2 3,6 0,2 0,7 3,0 22 12 35 19 W 80 60
10.01.2018 12:00:00 2,8 -0,2 2,3 0,2 0,7 3,0 27 15 33 18 W 80 52
10.01.2018 11:00:00 2,8 1,4 2,2 0,2 0,7 3,0 20 11 27 14 W 80 60
10.01.2018 10:00:00 1,6 0,8 0,9 0,2 0,7 3,0 24 13 28 15 W 80 34
10.01.2018 09:00:00 0,9 0,7 0,1 0,2 0,7 3,0 21 12 27 15 WNW 65 0

tt = Température de l'air
td = dewpoint
tt 5cm = Température de l'air 5cm
tt -5cm = Température de l'air -5cm
tt -20cm = Température de l'air -20cm
tt -100cm = Température de l'air -100cm
ff = Vitesse du vent
fx = gusts
dd = Direction du vent
vv = visibility
sd = Ensoleillement

stations d'obs. à proximité